This is the latest recevied weather packets stored in our database for station/object N5RPG. If no packets are shown the sender has not sent any weather packets the latest 10 day(s).
| Time | Temp. | Humidity | Pressure | Rain* | Wind** | Luminosity | Snow |
|---|---|---|---|---|---|---|---|
| 1778186968 | 21.67° C | 57% | 1017 hPa | 0 mm | - | 336 W/m² | - |
| 1778186665 | 21.67° C | 58% | 1017.3 hPa | 0 mm | - | 324 W/m² | - |
| 1778186362 | 22.22° C | 56% | 1017.1 hPa | 0 mm | - | 325 W/m² | - |
| 1778186060 | 22.22° C | 57% | 1017.1 hPa | 0 mm | - | 562 W/m² | - |
| 1778185756 | 21.67° C | 57% | 1017 hPa | 0 mm | - | 491 W/m² | - |
| 1778185453 | 21.67° C | 57% | 1017.1 hPa | 0 mm | - | 429 W/m² | - |
| 1778185148 | 21.67° C | 56% | 1017.1 hPa | 0 mm | - | 464 W/m² | - |
| 1778184844 | 21.67° C | 56% | 1017 hPa | 0 mm | - | 448 W/m² | - |
| 1778184541 | 21.67° C | 57% | 1017.3 hPa | 0 mm | - | 439 W/m² | - |
| 1778184237 | 21.67° C | 57% | 1017.3 hPa | 0 mm | - | 321 W/m² | - |
| 1778183933 | 21.67° C | 56% | 1017.6 hPa | 0 mm | - | 114 W/m² | - |
| 1778183630 | 21.67° C | 55% | 1017.8 hPa | 0 mm | - | 442 W/m² | - |
| 1778183328 | 21.67° C | 58% | 1017.8 hPa | 0 mm | - | 443 W/m² | - |
| 1778183024 | 22.22° C | 55% | 1017.6 hPa | 0 mm | - | 385 W/m² | - |
| 1778182720 | 22.22° C | 54% | 1018.1 hPa | 0 mm | - | 615 W/m² | - |
| 1778182418 | 22.22° C | 54% | 1018.1 hPa | 0 mm | - | 634 W/m² | - |
| 1778182114 | 21.67° C | 56% | 1018 hPa | 0 mm | - | 438 W/m² | - |
| 1778181810 | 21.67° C | 56% | 1018.1 hPa | 0 mm | - | 576 W/m² | - |
| 1778181507 | 21.67° C | 55% | 1018.2 hPa | 0 mm | - | 713 W/m² | - |
| 1778181203 | 21.67° C | 56% | 1018.3 hPa | 0 mm | - | 754 W/m² | - |
| 1778180900 | 21.11° C | 57% | 1018.3 hPa | 0 mm | - | 555 W/m² | - |
| 1778180598 | 20.56° C | 58% | 1018.1 hPa | 0 mm | - | 474 W/m² | - |
| 1778180297 | 21.11° C | 57% | 1018.3 hPa | 0 mm | - | 568 W/m² | - |
| 1778179993 | 21.11° C | 58% | 1018.3 hPa | 0 mm | - | 529 W/m² | - |
| 1778179690 | 21.11° C | 55% | 1018.2 hPa | 0 mm | - | 519 W/m² | - |
* Rain latest hour (hover to see other rain measurements)
** Current wind speed in m/s (hover to see current wind gust speed)